createdAt,value
2023-04-10T00:00:38.007Z,1.60
2023-04-10T00:03:05.536Z,1.50
2023-04-10T00:05:32.799Z,1.40
2023-04-10T00:08:00.277Z,1.30
2023-04-10T00:10:29.312Z,1.30
2023-04-10T00:12:56.528Z,1.20
2023-04-10T00:15:23.902Z,1.20
2023-04-10T00:17:54.935Z,1.20
2023-04-10T00:20:23.561Z,1.30
2023-04-10T00:22:50.680Z,1.40
2023-04-10T00:25:17.894Z,1.50
2023-04-10T00:27:45.012Z,1.50
2023-04-10T00:30:12.171Z,1.50
2023-04-10T00:32:39.161Z,1.50
2023-04-10T00:35:08.349Z,1.50
2023-04-10T00:37:35.683Z,1.50
2023-04-10T00:40:03.296Z,1.50
2023-04-10T00:42:30.376Z,1.30
2023-04-10T00:44:57.250Z,1.50
2023-04-10T00:47:25.599Z,1.50
2023-04-10T00:49:53.723Z,1.50
2023-04-10T00:52:20.858Z,1.50
2023-04-10T00:54:48.101Z,1.50
2023-04-10T00:57:15.464Z,1.60
2023-04-10T00:59:42.506Z,1.50
2023-04-10T01:02:11.194Z,1.50
2023-04-10T01:04:38.788Z,1.50
2023-04-10T01:07:51.507Z,1.40
2023-04-10T01:11:02.889Z,1.40
2023-04-10T01:14:10.953Z,1.30
2023-04-10T01:17:07.957Z,1.10
2023-04-10T01:20:07.744Z,1.00
2023-04-10T01:23:19.461Z,1.00
2023-04-10T01:26:05.476Z,0.80
2023-04-10T01:29:08.072Z,0.80
2023-04-10T01:31:50.836Z,1.10
2023-04-10T01:34:27.746Z,1.20
2023-04-10T01:37:07.410Z,1.50
2023-04-10T01:39:42.590Z,1.80
2023-04-10T01:42:14.737Z,1.90
2023-04-10T01:44:46.922Z,2.00
2023-04-10T01:47:18.153Z,1.90
2023-04-10T01:49:48.847Z,2.10
2023-04-10T01:52:17.775Z,2.30
2023-04-10T01:54:48.410Z,2.30
2023-04-10T01:57:17.252Z,2.30
2023-04-10T01:59:44.522Z,2.30
2023-04-10T02:02:12.257Z,2.30
2023-04-10T02:04:39.506Z,2.30
2023-04-10T02:07:19.903Z,2.30
2023-04-10T02:10:22.200Z,2.30
2023-04-10T02:13:05.415Z,2.10
2023-04-10T02:15:36.794Z,2.00
2023-04-10T02:18:06.474Z,2.00
2023-04-10T02:20:34.380Z,1.80
2023-04-10T02:23:03.749Z,1.70
2023-04-10T02:25:35.969Z,1.50
2023-04-10T02:28:07.908Z,1.40
2023-04-10T02:30:35.790Z,1.40
2023-04-10T02:33:02.842Z,1.30
2023-04-10T02:35:29.915Z,1.30
2023-04-10T02:37:57.035Z,1.20
2023-04-10T02:40:24.148Z,1.00
2023-04-10T02:42:51.160Z,0.90
2023-04-10T02:45:18.250Z,0.70
2023-04-10T02:47:45.468Z,0.70
2023-04-10T02:50:12.365Z,0.60
2023-04-10T02:52:40.410Z,0.40
2023-04-10T02:55:07.872Z,0.40
2023-04-10T02:57:35.485Z,0.30
2023-04-10T03:00:05.059Z,0.30
2023-04-10T03:02:32.641Z,0.30
2023-04-10T03:05:02.344Z,0.20
2023-04-10T03:07:29.322Z,0.20
2023-04-10T03:09:56.260Z,0.30
2023-04-10T03:12:23.349Z,0.40
2023-04-10T03:14:50.235Z,0.50
2023-04-10T03:17:17.277Z,0.60
2023-04-10T03:19:44.204Z,0.70
2023-04-10T03:22:11.421Z,0.90
2023-04-10T03:24:38.312Z,1.20
2023-04-10T03:27:05.379Z,1.40
2023-04-10T03:29:32.314Z,1.40
2023-04-10T03:31:59.285Z,1.60
2023-04-10T03:34:26.286Z,1.70
2023-04-10T03:36:53.121Z,1.70
2023-04-10T03:39:20.637Z,1.70
2023-04-10T03:41:47.545Z,1.60
2023-04-10T03:44:14.475Z,1.60
2023-04-10T03:46:41.477Z,1.50
2023-04-10T03:49:08.473Z,1.40
2023-04-10T03:51:35.439Z,1.30
2023-04-10T03:54:02.433Z,1.30
2023-04-10T03:56:29.421Z,1.10
2023-04-10T03:58:56.361Z,0.90
2023-04-10T04:01:23.457Z,0.80
2023-04-10T04:03:50.590Z,0.80
2023-04-10T04:06:17.626Z,0.70
2023-04-10T04:08:44.551Z,0.70
2023-04-10T04:11:11.575Z,0.80
2023-04-10T04:13:38.592Z,1.10
2023-04-10T04:16:06.690Z,1.40
2023-04-10T04:18:33.586Z,1.50
2023-04-10T04:21:00.644Z,1.60
2023-04-10T04:23:27.561Z,1.80
2023-04-10T04:25:56.815Z,2.00
2023-04-10T04:28:23.771Z,2.20
2023-04-10T04:30:50.884Z,2.40
2023-04-10T04:33:17.889Z,2.40
2023-04-10T04:35:44.848Z,2.40
2023-04-10T04:38:11.799Z,2.60
2023-04-10T04:40:38.763Z,2.70
2023-04-10T04:43:05.761Z,2.70
2023-04-10T04:45:32.720Z,2.80
2023-04-10T04:47:59.587Z,2.80
2023-04-10T04:50:26.622Z,2.90
2023-04-10T04:52:53.551Z,2.90
2023-04-10T04:55:20.548Z,2.90
2023-04-10T04:57:47.540Z,2.90
2023-04-10T05:00:14.829Z,2.90
2023-04-10T05:02:41.830Z,2.90
2023-04-10T05:05:09.239Z,2.90
2023-04-10T05:07:36.338Z,2.90
2023-04-10T05:10:03.442Z,2.80
2023-04-10T05:12:30.382Z,2.80
2023-04-10T05:14:57.350Z,2.70
2023-04-10T05:17:24.358Z,2.70
2023-04-10T05:19:51.410Z,2.80
2023-04-10T05:22:18.693Z,2.80
2023-04-10T05:24:45.965Z,2.90
2023-04-10T05:27:12.963Z,3.00
2023-04-10T05:29:39.901Z,3.10
2023-04-10T05:32:06.938Z,3.30
2023-04-10T05:34:33.868Z,3.50
2023-04-10T05:37:00.837Z,3.70
2023-04-10T05:39:27.797Z,3.80
2023-04-10T05:41:54.735Z,4.00
2023-04-10T05:44:21.660Z,4.10
2023-04-10T05:46:48.739Z,4.30
2023-04-10T05:49:16.780Z,4.50
2023-04-10T05:51:43.779Z,4.60
2023-04-10T05:54:10.736Z,4.70
2023-04-10T05:56:37.611Z,4.80
2023-04-10T05:59:04.608Z,4.90
2023-04-10T06:01:31.571Z,5.00
2023-04-10T06:03:58.588Z,5.20
2023-04-10T06:06:26.719Z,5.30
2023-04-10T06:08:53.871Z,5.40
2023-04-10T06:11:21.748Z,5.50
2023-04-10T06:13:48.707Z,5.60
2023-04-10T06:16:16.318Z,5.70
2023-04-10T06:18:43.793Z,5.80
2023-04-10T06:21:10.654Z,5.90
2023-04-10T06:23:37.769Z,6.00
2023-04-10T06:26:05.257Z,6.10
2023-04-10T06:28:32.275Z,6.30
2023-04-10T06:31:03.172Z,6.40
2023-04-10T06:33:30.501Z,6.50
2023-04-10T06:35:58.557Z,6.60
2023-04-10T06:38:25.624Z,6.70
2023-04-10T06:40:52.602Z,6.80
2023-04-10T06:43:19.540Z,6.90
2023-04-10T06:45:46.848Z,7.10
2023-04-10T06:48:14.461Z,7.20
2023-04-10T06:50:41.382Z,7.40
2023-04-10T06:53:08.394Z,7.50
2023-04-10T06:55:35.291Z,7.60
2023-04-10T06:58:02.223Z,7.80
2023-04-10T07:00:30.531Z,8.00
2023-04-10T07:02:57.749Z,8.30
2023-04-10T07:05:24.815Z,8.60
2023-04-10T07:07:51.844Z,8.80
2023-04-10T07:10:18.937Z,8.90
2023-04-10T07:12:46.060Z,9.10
2023-04-10T07:15:13.042Z,9.30
2023-04-10T07:17:40.407Z,9.60
2023-04-10T07:20:08.536Z,10.00
2023-04-10T07:22:35.568Z,10.30
2023-04-10T07:25:02.735Z,10.40
2023-04-10T07:27:29.968Z,10.40
2023-04-10T07:29:56.970Z,10.70
2023-04-10T07:32:24.486Z,10.70
2023-04-10T07:34:51.656Z,10.80
2023-04-10T07:37:18.581Z,11.20
2023-04-10T07:39:45.634Z,11.50
2023-04-10T07:42:14.643Z,11.70
2023-04-10T07:44:41.547Z,11.80
2023-04-10T07:47:09.457Z,11.90
2023-04-10T07:49:36.709Z,12.10
2023-04-10T07:52:03.743Z,12.40
2023-04-10T07:54:34.518Z,12.40
2023-04-10T07:57:01.533Z,12.40
2023-04-10T07:59:29.774Z,12.50
2023-04-10T08:03:47.457Z,12.60
2023-04-10T08:06:14.647Z,12.80
2023-04-10T08:08:42.581Z,12.80
2023-04-10T08:11:32.041Z,12.90
2023-04-10T08:14:02.635Z,12.60
2023-04-10T08:16:36.973Z,12.30
2023-04-10T08:19:04.034Z,12.50
2023-04-10T08:21:32.430Z,13.00
2023-04-10T08:24:02.687Z,12.90
2023-04-10T08:26:30.505Z,13.20
2023-04-10T08:29:00.728Z,13.60
2023-04-10T08:31:29.874Z,13.70
2023-04-10T08:33:57.818Z,13.70
2023-04-10T08:36:26.519Z,14.00
2023-04-10T08:38:53.428Z,14.40
2023-04-10T08:41:20.694Z,14.40
2023-04-10T08:43:49.481Z,14.80
2023-04-10T08:46:16.746Z,15.10
2023-04-10T08:49:05.187Z,15.30
2023-04-10T08:51:58.632Z,15.30
2023-04-10T08:54:34.835Z,15.20
2023-04-10T08:57:02.576Z,15.30
2023-04-10T08:59:31.397Z,15.60
2023-04-10T09:01:59.668Z,16.00
2023-04-10T09:04:27.531Z,16.50
2023-04-10T09:06:54.890Z,16.20
2023-04-10T09:09:21.828Z,16.00
2023-04-10T09:12:01.227Z,16.10
2023-04-10T09:14:37.234Z,16.00
2023-04-10T09:17:30.547Z,16.40
2023-04-10T09:19:57.473Z,16.50
2023-04-10T09:22:36.018Z,16.20
2023-04-10T09:25:04.845Z,16.10
2023-04-10T09:27:35.990Z,16.30
2023-04-10T09:30:05.316Z,16.70
2023-04-10T09:32:46.525Z,16.50
2023-04-10T09:35:15.908Z,16.20
2023-04-10T09:37:48.985Z,16.80
2023-04-10T09:40:26.075Z,17.70
2023-04-10T09:42:56.271Z,17.20
2023-04-10T09:45:26.273Z,16.70
2023-04-10T09:48:10.037Z,16.50
2023-04-10T09:50:44.780Z,17.40
2023-04-10T09:53:19.478Z,17.90
2023-04-10T09:55:49.676Z,18.00
2023-04-10T09:58:19.304Z,18.10
2023-04-10T10:00:49.896Z,17.80
2023-04-10T10:03:22.222Z,17.70
2023-04-10T10:05:51.876Z,17.80
2023-04-10T10:08:19.793Z,17.90
2023-04-10T10:10:56.693Z,18.20
2023-04-10T10:13:48.923Z,19.30
2023-04-10T10:16:29.287Z,19.60
2023-04-10T10:19:16.644Z,19.90
2023-04-10T10:21:46.064Z,20.30
2023-04-10T10:24:15.827Z,20.50
2023-04-10T10:26:46.926Z,19.60
2023-04-10T10:29:17.845Z,18.80
2023-04-10T10:31:47.040Z,18.90
2023-04-10T10:34:16.542Z,18.30
2023-04-10T10:36:43.584Z,18.70
2023-04-10T10:39:54.309Z,19.20
2023-04-10T10:42:53.413Z,18.80
2023-04-10T10:45:34.651Z,18.90
2023-04-10T10:48:01.750Z,19.20
2023-04-10T10:50:58.991Z,19.50
2023-04-10T10:53:45.196Z,20.10
2023-04-10T10:56:23.781Z,20.10
2023-04-10T10:58:58.627Z,20.70
2023-04-10T11:01:26.177Z,20.80
2023-04-10T11:03:53.354Z,21.50
2023-04-10T11:06:43.578Z,21.20
2023-04-10T11:09:46.340Z,20.60
2023-04-10T11:12:13.414Z,20.10
2023-04-10T11:14:44.275Z,20.60
2023-04-10T11:17:11.891Z,21.30
2023-04-10T11:20:11.221Z,21.50
2023-04-10T11:23:12.364Z,20.60
2023-04-10T11:25:55.560Z,20.50
2023-04-10T11:28:49.081Z,19.50
2023-04-10T11:31:24.007Z,17.50
2023-04-10T11:33:59.648Z,19.10
2023-04-10T11:36:27.964Z,18.30
2023-04-10T11:38:56.450Z,17.50
2023-04-10T11:41:42.589Z,18.70
2023-04-10T11:44:17.509Z,20.50
2023-04-10T11:46:47.200Z,21.50
2023-04-10T11:49:27.445Z,20.10
2023-04-10T11:51:57.141Z,19.00
2023-04-10T11:54:30.840Z,19.70
2023-04-10T11:57:07.503Z,20.00
2023-04-10T11:59:35.468Z,19.40
2023-04-10T12:02:09.364Z,18.50
2023-04-10T12:04:41.558Z,19.70
2023-04-10T12:07:10.966Z,21.70
2023-04-10T12:09:38.004Z,21.30
2023-04-10T12:12:08.160Z,21.00
2023-04-10T12:14:40.758Z,20.50
2023-04-10T12:17:12.756Z,19.00
2023-04-10T12:19:41.359Z,19.00
2023-04-10T12:22:12.674Z,20.10
2023-04-10T12:24:49.609Z,21.20
2023-04-10T12:27:34.497Z,21.80
2023-04-10T12:30:08.643Z,22.40
2023-04-10T12:32:35.932Z,20.90
2023-04-10T12:35:02.924Z,21.70
2023-04-10T12:37:54.410Z,22.50
2023-04-10T12:40:21.540Z,22.20
2023-04-10T12:42:48.523Z,22.60
2023-04-10T12:45:15.606Z,22.60
2023-04-10T12:47:51.594Z,22.10
2023-04-10T12:50:24.101Z,22.50
2023-04-10T12:53:08.007Z,23.70
2023-04-10T12:55:35.170Z,24.40
2023-04-10T12:58:18.501Z,23.40
2023-04-10T13:00:46.826Z,22.90
2023-04-10T13:03:13.902Z,22.70
2023-04-10T13:05:41.000Z,23.50
2023-04-10T13:08:08.095Z,23.60
2023-04-10T13:10:37.996Z,23.10
2023-04-10T13:13:06.909Z,22.00
2023-04-10T13:15:34.651Z,21.90
2023-04-10T13:18:04.331Z,22.30
2023-04-10T13:20:36.211Z,22.70
2023-04-10T13:23:03.996Z,22.80
2023-04-10T13:25:34.715Z,22.10
2023-04-10T13:28:02.178Z,22.40
2023-04-10T13:30:30.291Z,22.10
2023-04-10T13:32:57.729Z,21.10
2023-04-10T13:35:24.709Z,20.90
2023-04-10T13:37:53.981Z,20.70
2023-04-10T13:40:21.823Z,20.80
2023-04-10T13:42:49.089Z,21.10
2023-04-10T13:45:16.365Z,21.30
2023-04-10T13:47:44.134Z,21.10
2023-04-10T13:50:11.769Z,20.90
2023-04-10T13:52:38.694Z,21.00
2023-04-10T13:55:07.236Z,20.80
2023-04-10T13:57:34.253Z,21.20
2023-04-10T14:00:01.434Z,21.30
2023-04-10T14:02:28.370Z,21.10
2023-04-10T14:04:55.369Z,21.00
2023-04-10T14:07:22.390Z,21.30
2023-04-10T14:09:49.350Z,21.90
2023-04-10T14:12:16.447Z,21.80
2023-04-10T14:14:45.392Z,21.50
2023-04-10T14:17:12.323Z,21.70
2023-04-10T14:19:39.715Z,21.10
2023-04-10T14:22:06.666Z,21.20
2023-04-10T14:24:33.975Z,21.30
2023-04-10T14:27:01.817Z,21.50
2023-04-10T14:31:59.744Z,21.40
2023-04-10T14:34:26.920Z,21.10
2023-04-10T14:36:55.841Z,21.30
2023-04-10T14:39:24.729Z,20.70
2023-04-10T14:41:51.990Z,20.30
2023-04-10T14:44:19.047Z,19.20
2023-04-10T14:46:46.119Z,19.10
2023-04-10T14:49:14.942Z,19.10
2023-04-10T14:51:46.148Z,19.50
2023-04-10T14:54:13.128Z,19.30
2023-04-10T14:56:40.231Z,19.10
2023-04-10T14:59:07.174Z,19.30
2023-04-10T15:01:35.763Z,18.70
2023-04-10T15:04:03.014Z,18.20
2023-04-10T15:06:32.228Z,17.80
2023-04-10T15:08:59.395Z,17.50
2023-04-10T15:11:27.094Z,17.30
2023-04-10T15:13:54.206Z,17.30
2023-04-10T15:16:21.378Z,17.10
2023-04-10T15:18:49.291Z,17.40
2023-04-10T15:21:17.595Z,17.80
2023-04-10T15:23:44.725Z,17.60
2023-04-10T15:26:14.064Z,17.60
2023-04-10T15:28:45.476Z,17.60
2023-04-10T15:31:12.478Z,17.00
2023-04-10T15:33:40.184Z,16.80
2023-04-10T15:36:09.051Z,16.70
2023-04-10T15:38:36.276Z,16.60
2023-04-10T15:41:13.491Z,16.70
2023-04-10T15:43:42.324Z,17.10
2023-04-10T15:46:09.401Z,17.20
2023-04-10T15:48:36.726Z,17.10
2023-04-10T15:51:06.285Z,16.80
2023-04-10T15:53:35.530Z,16.40
2023-04-10T15:56:05.740Z,16.10
2023-04-10T15:58:33.974Z,15.90
2023-04-10T16:01:02.040Z,15.60
2023-04-10T16:03:30.645Z,15.50
2023-04-10T16:05:58.221Z,15.10
2023-04-10T16:08:26.110Z,14.70
2023-04-10T16:10:53.889Z,14.40
2023-04-10T16:13:20.928Z,14.30
2023-04-10T16:15:49.193Z,14.20
2023-04-10T16:18:16.161Z,14.20
2023-04-10T16:20:43.466Z,14.10
2023-04-10T16:23:10.497Z,14.00
2023-04-10T16:25:37.437Z,13.90
2023-04-10T16:28:08.105Z,13.90
2023-04-10T16:30:36.342Z,13.80
2023-04-10T16:33:04.022Z,13.60
2023-04-10T16:35:31.311Z,13.50
2023-04-10T16:37:58.339Z,13.40
2023-04-10T16:40:32.701Z,13.30
2023-04-10T16:43:01.573Z,13.20
2023-04-10T16:45:28.629Z,13.00
2023-04-10T16:47:55.826Z,12.90
2023-04-10T16:50:22.951Z,12.80
2023-04-10T16:52:50.088Z,12.70
2023-04-10T16:55:17.165Z,12.60
2023-04-10T16:57:44.173Z,12.50
2023-04-10T17:00:11.977Z,12.40
2023-04-10T17:02:39.047Z,12.30
2023-04-10T17:05:06.463Z,12.20
2023-04-10T17:07:34.347Z,12.10
2023-04-10T17:10:01.354Z,12.00
2023-04-10T17:12:28.317Z,11.90
2023-04-10T17:14:55.260Z,11.70
2023-04-10T17:17:22.361Z,11.60
2023-04-10T17:19:49.466Z,11.50
2023-04-10T17:22:16.562Z,11.40
2023-04-10T17:24:45.188Z,11.30
2023-04-10T17:27:13.713Z,11.20
2023-04-10T17:29:41.296Z,11.20
2023-04-10T17:32:09.464Z,11.10
2023-04-10T17:34:36.407Z,11.00
2023-04-10T17:37:03.510Z,10.90
2023-04-10T17:39:30.596Z,10.80
2023-04-10T17:41:57.538Z,10.70
2023-04-10T17:44:24.616Z,10.60
2023-04-10T17:46:53.453Z,10.50
2023-04-10T17:49:22.066Z,10.40
2023-04-10T17:51:49.852Z,10.20
2023-04-10T17:54:16.855Z,10.10
2023-04-10T17:56:43.916Z,10.00
2023-04-10T17:59:10.983Z,9.90
2023-04-10T18:01:38.155Z,9.80
2023-04-10T18:04:05.558Z,9.60
2023-04-10T18:06:32.710Z,9.60
2023-04-10T18:08:59.703Z,9.70
2023-04-10T18:11:27.180Z,9.80
2023-04-10T18:13:54.143Z,9.90
2023-04-10T18:16:21.134Z,10.00
2023-04-10T18:18:48.079Z,10.00
2023-04-10T18:21:15.921Z,10.00
2023-04-10T18:23:44.390Z,9.90
2023-04-10T18:26:12.956Z,9.90
2023-04-10T18:28:41.878Z,9.90
2023-04-10T18:31:08.918Z,9.90
2023-04-10T18:33:36.089Z,9.90
2023-04-10T18:36:03.337Z,9.80
2023-04-10T18:38:30.694Z,9.80
2023-04-10T18:40:58.368Z,9.70
2023-04-10T18:43:29.275Z,9.70
2023-04-10T18:45:57.849Z,9.70
2023-04-10T18:48:24.974Z,9.60
2023-04-10T18:50:53.240Z,9.60
2023-04-10T18:53:22.243Z,9.60
2023-04-10T18:55:54.159Z,9.60
2023-04-10T18:58:22.621Z,9.60
2023-04-10T19:00:49.944Z,9.60
2023-04-10T19:03:17.061Z,9.60
2023-04-10T19:05:44.338Z,9.60
2023-04-10T19:08:15.582Z,9.60
2023-04-10T19:10:43.178Z,9.60
2023-04-10T19:13:12.348Z,9.60
2023-04-10T19:15:46.441Z,9.60
2023-04-10T19:18:15.057Z,9.60
2023-04-10T19:20:52.558Z,9.50
2023-04-10T19:23:21.311Z,9.50
2023-04-10T19:25:55.093Z,9.40
2023-04-10T19:28:24.210Z,9.40
2023-04-10T19:30:52.050Z,9.40
2023-04-10T19:33:21.945Z,9.40
2023-04-10T19:35:48.971Z,9.40
2023-04-10T19:38:15.997Z,9.30
2023-04-10T19:40:44.365Z,9.30
2023-04-10T19:43:12.187Z,9.20
2023-04-10T19:45:40.051Z,9.10
2023-04-10T19:48:10.053Z,9.00
2023-04-10T19:50:37.130Z,9.00
2023-04-10T19:53:04.663Z,8.90
2023-04-10T19:55:31.776Z,8.90
2023-04-10T19:57:58.810Z,8.80
2023-04-10T20:00:25.891Z,8.80
2023-04-10T20:02:52.993Z,8.70
2023-04-10T20:05:20.182Z,8.70
2023-04-10T20:07:47.201Z,8.70
2023-04-10T20:10:14.130Z,8.60
2023-04-10T20:12:41.173Z,8.60
2023-04-10T20:15:09.356Z,8.60
2023-04-10T20:17:36.341Z,8.50
2023-04-10T20:20:03.740Z,8.50
2023-04-10T20:22:32.162Z,8.50
2023-04-10T20:24:59.037Z,8.40
2023-04-10T20:27:26.370Z,8.40
2023-04-10T20:29:53.293Z,8.40
2023-04-10T20:32:20.492Z,8.40
2023-04-10T20:34:47.505Z,8.40
2023-04-10T20:37:18.546Z,8.40
2023-04-10T20:39:45.456Z,8.40
2023-04-10T20:42:12.424Z,8.40
2023-04-10T20:44:39.319Z,8.40
2023-04-10T20:47:06.676Z,8.50
2023-04-10T20:49:34.268Z,8.50
2023-04-10T20:52:01.448Z,8.40
2023-04-10T20:54:28.324Z,8.40
2023-04-10T20:56:56.831Z,8.30
2023-04-10T20:59:23.801Z,8.30
2023-04-10T21:01:50.797Z,8.20
2023-04-10T21:04:18.072Z,8.10
2023-04-10T21:06:45.250Z,8.20
2023-04-10T21:09:12.196Z,8.20
2023-04-10T21:11:39.034Z,8.20
2023-04-10T21:14:05.933Z,8.30
2023-04-10T21:16:34.676Z,8.20
2023-04-10T21:19:01.777Z,8.10
2023-04-10T21:21:30.204Z,8.10
2023-04-10T21:23:57.089Z,8.10
2023-04-10T21:26:24.048Z,8.00
2023-04-10T21:28:51.028Z,8.00
2023-04-10T21:31:17.947Z,8.00
2023-04-10T21:33:45.645Z,8.00
2023-04-10T21:36:12.633Z,8.00
2023-04-10T21:38:40.706Z,8.10
2023-04-10T21:41:07.910Z,8.10
2023-04-10T21:43:35.216Z,8.10
2023-04-10T21:46:03.044Z,8.10
2023-04-10T21:48:30.338Z,8.10
2023-04-10T21:50:57.352Z,8.10
2023-04-10T21:53:24.272Z,8.10
2023-04-10T21:55:52.158Z,8.10
2023-04-10T21:58:19.074Z,8.00
2023-04-10T22:00:47.305Z,8.00
2023-04-10T22:03:16.164Z,8.00
2023-04-10T22:05:43.477Z,7.90
2023-04-10T22:08:10.652Z,8.00
2023-04-10T22:10:37.988Z,8.00
2023-04-10T22:13:04.976Z,8.00
2023-04-10T22:15:32.010Z,8.00
2023-04-10T22:17:59.066Z,8.00
2023-04-10T22:20:25.980Z,8.00
2023-04-10T22:22:53.119Z,8.00
2023-04-10T22:25:20.243Z,8.00
2023-04-10T22:27:48.347Z,8.00
2023-04-10T22:30:15.784Z,8.00
2023-04-10T22:32:42.750Z,8.00
2023-04-10T22:35:09.790Z,8.10
2023-04-10T22:37:36.751Z,8.00
2023-04-10T22:40:05.881Z,8.00
2023-04-10T22:42:32.770Z,8.00
2023-04-10T22:44:59.871Z,8.00
2023-04-10T22:47:26.963Z,8.00
2023-04-10T22:49:54.135Z,8.00
2023-04-10T22:52:21.317Z,8.00
2023-04-10T22:54:48.244Z,7.90
2023-04-10T22:57:15.223Z,7.90
2023-04-10T22:59:42.228Z,7.90
2023-04-10T23:02:09.271Z,7.90
2023-04-10T23:04:36.448Z,7.90
2023-04-10T23:07:03.387Z,7.90
2023-04-10T23:09:30.330Z,7.90
2023-04-10T23:11:57.256Z,7.90
2023-04-10T23:14:24.214Z,7.90
2023-04-10T23:16:51.174Z,7.90
2023-04-10T23:19:18.852Z,7.90
2023-04-10T23:21:45.802Z,8.00
2023-04-10T23:24:12.664Z,7.90
2023-04-10T23:26:39.535Z,8.00
2023-04-10T23:29:06.499Z,8.00
2023-04-10T23:31:33.362Z,8.00
2023-04-10T23:34:00.278Z,8.00
2023-04-10T23:36:27.250Z,8.00
2023-04-10T23:38:54.534Z,7.90
2023-04-10T23:41:22.185Z,8.00
2023-04-10T23:43:49.374Z,7.90
2023-04-10T23:46:16.415Z,7.90
2023-04-10T23:48:43.443Z,8.00
2023-04-10T23:51:10.450Z,7.90
2023-04-10T23:53:37.467Z,7.90
2023-04-10T23:56:04.891Z,7.90
2023-04-10T23:58:31.804Z,7.90
